createdAt,value
2018-09-04T00:00:07.597Z,21.96
2018-09-04T00:01:43.025Z,22.07
2018-09-04T00:03:18.753Z,22.02
2018-09-04T00:04:54.685Z,22.22
2018-09-04T00:06:30.100Z,22.01
2018-09-04T00:08:05.679Z,21.91
2018-09-04T00:09:41.187Z,21.93
2018-09-04T00:11:16.673Z,21.89
2018-09-04T00:12:52.207Z,21.93
2018-09-04T00:14:27.689Z,21.95
2018-09-04T00:16:09.918Z,21.85
2018-09-04T00:17:45.444Z,21.70
2018-09-04T00:19:21.050Z,21.68
2018-09-04T00:20:56.505Z,21.62
2018-09-04T00:22:32.931Z,21.67
2018-09-04T00:24:08.546Z,21.71
2018-09-04T00:25:45.198Z,21.75
2018-09-04T00:27:20.694Z,21.71
2018-09-04T00:28:56.208Z,21.58
2018-09-04T00:30:31.702Z,21.51
2018-09-04T00:32:07.436Z,21.50
2018-09-04T00:33:42.953Z,21.43
2018-09-04T00:35:18.455Z,21.44
2018-09-04T00:36:54.882Z,21.49
2018-09-04T00:38:30.358Z,21.43
2018-09-04T00:40:06.506Z,21.31
2018-09-04T00:41:42.010Z,21.21
2018-09-04T00:43:17.501Z,21.08
2018-09-04T00:44:53.153Z,21.22
2018-09-04T00:46:28.610Z,21.25
2018-09-04T00:48:04.192Z,21.19
2018-09-04T00:49:39.814Z,21.24
2018-09-04T00:51:15.377Z,21.12
2018-09-04T00:52:51.464Z,21.15
2018-09-04T00:54:26.964Z,21.19
2018-09-04T00:56:02.504Z,21.27
2018-09-04T00:57:38.046Z,21.33
2018-09-04T00:59:13.569Z,21.34
2018-09-04T01:00:49.948Z,21.35
2018-09-04T01:02:25.442Z,21.33
2018-09-04T01:04:00.929Z,21.35
2018-09-04T01:05:36.528Z,21.21
2018-09-04T01:07:13.505Z,21.21
2018-09-04T01:08:49.153Z,21.23
2018-09-04T01:10:24.615Z,21.22
2018-09-04T01:12:00.079Z,21.19
2018-09-04T01:13:40.296Z,21.16
2018-09-04T01:15:15.809Z,21.07
2018-09-04T01:16:51.333Z,21.07
2018-09-04T01:18:27.327Z,21.09
2018-09-04T01:20:03.488Z,21.12
2018-09-04T01:21:38.974Z,21.29
2018-09-04T01:23:14.451Z,21.45
2018-09-04T01:24:49.890Z,21.43
2018-09-04T01:26:25.385Z,21.38
2018-09-04T01:28:00.886Z,21.17
2018-09-04T01:29:36.337Z,21.01
2018-09-04T01:31:12.702Z,20.87
2018-09-04T01:32:48.244Z,20.99
2018-09-04T01:34:23.803Z,21.11
2018-09-04T01:35:59.246Z,21.18
2018-09-04T01:37:34.722Z,21.22
2018-09-04T01:39:10.205Z,21.21
2018-09-04T01:40:45.740Z,21.18
2018-09-04T01:42:22.135Z,21.17
2018-09-04T01:43:58.697Z,21.17
2018-09-04T01:45:34.200Z,21.12
2018-09-04T01:47:09.689Z,21.18
2018-09-04T01:48:45.238Z,20.98
2018-09-04T01:50:20.708Z,20.94
2018-09-04T01:51:56.177Z,20.84
2018-09-04T01:53:32.780Z,20.94
2018-09-04T01:55:08.288Z,20.91
2018-09-04T01:56:43.787Z,20.80
2018-09-04T01:58:19.318Z,20.79
2018-09-04T01:59:54.791Z,20.98
2018-09-04T02:01:30.302Z,21.04
2018-09-04T02:03:06.864Z,21.13
2018-09-04T02:04:43.227Z,21.15
2018-09-04T02:06:18.703Z,21.13
2018-09-04T02:07:54.206Z,21.10
2018-09-04T02:09:29.687Z,21.13
2018-09-04T02:11:05.301Z,21.03
2018-09-04T02:12:40.760Z,21.04
2018-09-04T02:14:16.218Z,21.08
2018-09-04T02:15:51.861Z,21.10
2018-09-04T02:17:27.303Z,21.04
2018-09-04T02:19:02.884Z,20.88
2018-09-04T02:20:38.479Z,20.95
2018-09-04T02:22:13.952Z,20.92
2018-09-04T02:23:49.440Z,20.90
2018-09-04T02:25:24.932Z,20.86
2018-09-04T02:27:00.454Z,21.00
2018-09-04T02:28:35.965Z,21.01
2018-09-04T02:30:11.464Z,21.12
2018-09-04T02:31:47.056Z,21.15
2018-09-04T02:33:22.531Z,21.12
2018-09-04T02:34:58.101Z,21.08
2018-09-04T02:36:33.819Z,21.08
2018-09-04T02:38:09.519Z,21.07
2018-09-04T02:39:44.971Z,21.03
2018-09-04T02:41:21.465Z,21.07
2018-09-04T02:42:56.986Z,20.86
2018-09-04T02:44:32.557Z,20.82
2018-09-04T02:46:08.128Z,20.91
2018-09-04T02:47:45.726Z,20.72
2018-09-04T02:49:21.259Z,20.90
2018-09-04T02:50:56.776Z,20.73
2018-09-04T02:52:32.251Z,20.57
2018-09-04T02:54:07.776Z,20.45
2018-09-04T02:55:43.245Z,20.60
2018-09-04T02:57:20.746Z,20.44
2018-09-04T02:58:57.439Z,20.28
2018-09-04T03:00:33.018Z,20.49
2018-09-04T03:02:08.509Z,20.49
2018-09-04T03:03:44.093Z,20.62
2018-09-04T03:05:19.854Z,20.70
2018-09-04T03:06:55.686Z,20.70
2018-09-04T03:08:31.166Z,20.74
2018-09-04T03:10:07.370Z,20.66
2018-09-04T03:11:42.867Z,20.75
2018-09-04T03:13:19.425Z,20.85
2018-09-04T03:14:55.107Z,20.95
2018-09-04T03:16:30.657Z,20.91
2018-09-04T03:18:06.159Z,20.92
2018-09-04T03:19:41.690Z,20.84
2018-09-04T03:21:18.107Z,20.85
2018-09-04T03:22:53.886Z,20.84
2018-09-04T03:24:29.400Z,20.90
2018-09-04T03:26:05.200Z,20.90
2018-09-04T03:27:41.364Z,20.96
2018-09-04T03:29:16.919Z,21.06
2018-09-04T03:30:52.560Z,21.17
2018-09-04T03:32:28.004Z,21.13
2018-09-04T03:34:03.502Z,21.00
2018-09-04T03:35:39.015Z,21.32
2018-09-04T03:37:14.491Z,21.18
2018-09-04T03:38:50.034Z,20.83
2018-09-04T03:40:25.665Z,20.58
2018-09-04T03:42:01.213Z,20.47
2018-09-04T03:43:36.725Z,20.55
2018-09-04T03:45:12.214Z,20.57
2018-09-04T03:46:47.928Z,20.56
2018-09-04T03:48:23.408Z,20.36
2018-09-04T03:49:58.997Z,20.45
2018-09-04T03:51:34.475Z,20.37
2018-09-04T03:53:09.932Z,20.47
2018-09-04T03:54:45.423Z,20.47
2018-09-04T03:56:20.980Z,20.55
2018-09-04T03:57:56.499Z,20.47
2018-09-04T03:59:31.999Z,20.66
2018-09-04T04:01:08.757Z,20.72
2018-09-04T04:02:44.318Z,20.56
2018-09-04T04:04:19.909Z,20.89
2018-09-04T04:05:55.397Z,20.88
2018-09-04T04:07:30.904Z,20.77
2018-09-04T04:09:08.487Z,20.83
2018-09-04T04:10:45.184Z,20.75
2018-09-04T04:12:20.717Z,20.74
2018-09-04T04:13:56.191Z,20.86
2018-09-04T04:15:31.860Z,20.65
2018-09-04T04:17:07.412Z,20.45
2018-09-04T04:18:42.931Z,20.26
2018-09-04T04:20:18.667Z,20.10
2018-09-04T04:21:54.168Z,20.51
2018-09-04T04:23:30.878Z,20.55
2018-09-04T04:25:06.406Z,20.65
2018-09-04T04:26:41.951Z,20.43
2018-09-04T04:28:17.514Z,20.69
2018-09-04T04:29:52.986Z,20.87
2018-09-04T04:31:29.036Z,20.89
2018-09-04T04:33:10.635Z,21.00
2018-09-04T04:34:46.376Z,20.92
2018-09-04T04:36:21.874Z,21.05
2018-09-04T04:37:57.388Z,21.15
2018-09-04T04:39:32.878Z,21.09
2018-09-04T04:41:09.009Z,21.28
2018-09-04T04:42:44.821Z,21.33
2018-09-04T04:44:20.403Z,21.35
2018-09-04T04:45:55.964Z,21.33
2018-09-04T04:47:38.559Z,21.27
2018-09-04T04:49:14.035Z,21.20
2018-09-04T04:50:49.683Z,20.98
2018-09-04T04:52:26.149Z,20.91
2018-09-04T04:54:01.644Z,20.79
2018-09-04T04:55:39.001Z,20.83
2018-09-04T04:57:14.506Z,20.82
2018-09-04T04:58:50.056Z,21.04
2018-09-04T05:00:25.581Z,20.73
2018-09-04T05:02:01.118Z,20.87
2018-09-04T05:03:37.120Z,21.08
2018-09-04T05:05:13.734Z,21.12
2018-09-04T05:06:49.249Z,21.11
2018-09-04T05:08:24.739Z,20.99
2018-09-04T05:10:01.268Z,20.98
2018-09-04T05:11:36.823Z,20.99
2018-09-04T05:13:12.479Z,21.16
2018-09-04T05:14:48.043Z,21.19
2018-09-04T05:16:24.518Z,21.17
2018-09-04T05:18:00.046Z,21.26
2018-09-04T05:19:35.766Z,21.19
2018-09-04T05:21:11.255Z,21.00
2018-09-04T05:22:46.881Z,21.10
2018-09-04T05:24:22.338Z,21.24
2018-09-04T05:25:57.820Z,21.16
2018-09-04T05:27:33.369Z,21.05
2018-09-04T05:29:08.898Z,21.15
2018-09-04T05:30:44.418Z,21.28
2018-09-04T05:32:26.165Z,21.37
2018-09-04T05:34:01.759Z,21.22
2018-09-04T05:35:42.626Z,21.24
2018-09-04T05:37:18.213Z,21.23
2018-09-04T05:38:53.742Z,21.27
2018-09-04T05:40:29.222Z,21.45
2018-09-04T05:42:10.021Z,21.36
2018-09-04T05:43:48.574Z,21.08
2018-09-04T05:45:25.572Z,21.19
2018-09-04T05:47:01.097Z,20.91
2018-09-04T05:48:36.602Z,20.78
2018-09-04T05:50:12.152Z,21.02
2018-09-04T05:51:47.662Z,21.29
2018-09-04T05:53:23.149Z,21.15
2018-09-04T05:54:58.774Z,21.13
2018-09-04T05:56:34.317Z,21.46
2018-09-04T05:58:09.805Z,21.62
2018-09-04T05:59:49.547Z,21.73
2018-09-04T06:01:25.258Z,21.71
2018-09-04T06:03:01.246Z,21.92
2018-09-04T06:04:37.033Z,21.54
2018-09-04T06:06:12.510Z,21.71
2018-09-04T06:07:48.056Z,21.84
2018-09-04T06:09:29.032Z,22.08
2018-09-04T06:11:04.900Z,22.17
2018-09-04T06:12:40.539Z,22.23
2018-09-04T06:14:16.221Z,22.29
2018-09-04T06:15:51.809Z,22.29
2018-09-04T06:17:27.963Z,22.42
2018-09-04T06:19:03.628Z,22.42
2018-09-04T06:20:40.161Z,22.44
2018-09-04T06:22:16.192Z,22.51
2018-09-04T06:23:51.664Z,22.53
2018-09-04T06:25:27.286Z,22.63
2018-09-04T06:27:02.787Z,22.72
2018-09-04T06:28:38.375Z,22.59
2018-09-04T06:30:14.581Z,22.76
2018-09-04T06:31:50.135Z,22.79
2018-09-04T06:33:25.638Z,22.78
2018-09-04T06:35:01.812Z,22.79
2018-09-04T06:36:37.371Z,22.95
2018-09-04T06:38:13.488Z,22.35
2018-09-04T06:39:50.136Z,22.30
2018-09-04T06:41:25.632Z,22.25
2018-09-04T06:43:01.331Z,22.46
2018-09-04T06:44:36.832Z,22.61
2018-09-04T06:46:12.378Z,22.86
2018-09-04T06:47:48.655Z,22.94
2018-09-04T06:49:24.274Z,23.02
2018-09-04T06:51:00.112Z,23.05
2018-09-04T06:52:35.618Z,22.92
2018-09-04T06:54:11.127Z,22.72
2018-09-04T06:55:47.204Z,22.47
2018-09-04T06:57:23.129Z,22.61
2018-09-04T06:58:58.633Z,22.65
2018-09-04T07:00:34.133Z,22.81
2018-09-04T07:02:09.666Z,22.80
2018-09-04T07:05:31.739Z,22.63
2018-09-04T07:07:09.770Z,22.52
2018-09-04T07:08:45.315Z,22.48
2018-09-04T07:10:21.339Z,22.19
2018-09-04T07:11:59.467Z,22.38
2018-09-04T07:13:35.385Z,22.36
2018-09-04T07:15:12.257Z,22.42
2018-09-04T07:16:48.674Z,22.26
2018-09-04T07:18:24.187Z,22.34
2018-09-04T07:19:59.824Z,22.48
2018-09-04T07:21:36.344Z,22.65
2018-09-04T07:23:12.207Z,22.40
2018-09-04T07:24:47.706Z,22.47
2018-09-04T07:26:24.296Z,22.19
2018-09-04T07:27:59.778Z,22.30
2018-09-04T07:29:36.324Z,22.38
2018-09-04T07:31:12.035Z,22.55
2018-09-04T07:32:47.599Z,22.79
2018-09-04T07:34:23.205Z,23.20
2018-09-04T07:35:58.752Z,23.52
2018-09-04T07:37:34.252Z,23.53
2018-09-04T07:39:10.816Z,23.35
2018-09-04T07:40:46.344Z,23.46
2018-09-04T07:42:21.867Z,23.69
2018-09-04T07:43:57.351Z,23.62
2018-09-04T07:45:33.251Z,23.97
2018-09-04T07:47:08.801Z,24.25
2018-09-04T07:48:44.326Z,24.44
2018-09-04T07:50:19.847Z,24.57
2018-09-04T07:51:55.331Z,24.80
2018-09-04T07:53:31.300Z,24.80
2018-09-04T07:55:06.939Z,24.50
2018-09-04T07:56:42.419Z,24.51
2018-09-04T07:58:17.955Z,24.60
2018-09-04T07:59:53.589Z,24.81
2018-09-04T08:01:29.233Z,24.97
2018-09-04T08:03:04.701Z,24.89
2018-09-04T08:04:40.208Z,24.64
2018-09-04T08:06:15.691Z,24.95
2018-09-04T08:07:51.211Z,25.10
2018-09-04T08:09:26.663Z,24.71
2018-09-04T08:11:02.195Z,24.38
2018-09-04T08:12:39.017Z,24.60
2018-09-04T08:14:14.528Z,25.02
2018-09-04T08:15:50.158Z,24.87
2018-09-04T08:17:25.676Z,24.88
2018-09-04T08:19:01.255Z,25.24
2018-09-04T08:20:37.900Z,25.09
2018-09-04T08:22:14.351Z,24.82
2018-09-04T08:23:49.860Z,24.85
2018-09-04T08:25:29.617Z,24.73
2018-09-04T08:27:05.737Z,24.69
2018-09-04T08:28:43.341Z,24.96
2018-09-04T08:30:18.863Z,25.02
2018-09-04T08:31:54.378Z,24.51
2018-09-04T08:33:29.918Z,24.79
2018-09-04T08:35:05.398Z,24.76
2018-09-04T08:36:40.875Z,24.58
2018-09-04T08:38:16.488Z,24.41
2018-09-04T08:39:52.010Z,24.20
2018-09-04T08:41:27.507Z,24.15
2018-09-04T08:43:03.301Z,24.22
2018-09-04T08:44:38.870Z,24.22
2018-09-04T08:46:15.203Z,24.27
2018-09-04T08:47:51.758Z,24.14
2018-09-04T08:49:27.094Z,24.07
2018-09-04T08:51:02.610Z,24.37
2018-09-04T08:52:38.122Z,24.40
2018-09-04T08:54:13.627Z,24.56
2018-09-04T08:55:49.124Z,24.58
2018-09-04T08:57:24.655Z,24.33
2018-09-04T08:59:00.304Z,24.17
2018-09-04T09:00:35.848Z,24.46
2018-09-04T09:02:11.377Z,24.74
2018-09-04T09:03:46.912Z,24.83
2018-09-04T09:05:22.426Z,24.97
2018-09-04T09:06:58.287Z,25.19
2018-09-04T09:08:33.825Z,25.05
2018-09-04T09:10:09.807Z,24.71
2018-09-04T09:11:46.554Z,24.40
2018-09-04T09:13:23.084Z,24.31
2018-09-04T09:14:59.592Z,24.06
2018-09-04T09:16:35.321Z,24.58
2018-09-04T09:18:11.075Z,25.04
2018-09-04T09:19:46.613Z,25.13
2018-09-04T09:21:22.592Z,25.21
2018-09-04T09:22:58.207Z,25.02
2018-09-04T09:24:33.731Z,24.78
2018-09-04T09:26:09.299Z,25.16
2018-09-04T09:27:47.312Z,25.38
2018-09-04T09:29:23.505Z,25.51
2018-09-04T09:30:59.237Z,25.48
2018-09-04T09:32:34.764Z,25.22
2018-09-04T09:34:10.364Z,25.14
2018-09-04T09:35:45.898Z,25.38
2018-09-04T09:37:21.667Z,25.43
2018-09-04T09:38:57.256Z,25.00
2018-09-04T09:40:32.793Z,24.83
2018-09-04T09:42:11.791Z,25.06
2018-09-04T09:43:47.320Z,25.56
2018-09-04T09:45:23.245Z,25.59
2018-09-04T09:47:01.926Z,25.69
2018-09-04T09:48:40.317Z,25.51
2018-09-04T09:50:15.895Z,25.45
2018-09-04T09:51:51.390Z,25.52
2018-09-04T09:53:27.025Z,25.62
2018-09-04T09:55:02.460Z,25.38
2018-09-04T09:56:38.010Z,25.19
2018-09-04T09:58:13.564Z,25.20
2018-09-04T09:59:49.203Z,25.52
2018-09-04T10:01:30.812Z,25.44
2018-09-04T10:03:11.695Z,25.83
2018-09-04T10:04:47.216Z,25.77
2018-09-04T10:06:22.806Z,25.86
2018-09-04T10:07:58.426Z,25.91
2018-09-04T10:09:33.884Z,25.96
2018-09-04T10:11:10.194Z,25.80
2018-09-04T10:12:47.729Z,25.65
2018-09-04T10:14:23.283Z,25.61
2018-09-04T10:15:59.766Z,25.80
2018-09-04T10:17:35.638Z,26.07
2018-09-04T10:19:11.882Z,25.95
2018-09-04T10:20:48.646Z,26.06
2018-09-04T10:22:24.269Z,25.91
2018-09-04T10:23:59.808Z,25.87
2018-09-04T10:25:35.310Z,25.84
2018-09-04T10:27:10.811Z,26.11
2018-09-04T10:28:46.320Z,26.14
2018-09-04T10:30:21.934Z,26.42
2018-09-04T10:31:57.423Z,26.59
2018-09-04T10:33:32.986Z,26.59
2018-09-04T10:35:08.525Z,26.28
2018-09-04T10:36:45.014Z,26.67
2018-09-04T10:38:24.061Z,26.74
2018-09-04T10:40:05.065Z,26.76
2018-09-04T10:41:40.544Z,26.70
2018-09-04T10:43:16.035Z,26.60
2018-09-04T10:44:51.852Z,26.56
2018-09-04T10:46:27.358Z,26.43
2018-09-04T10:48:02.987Z,26.42
2018-09-04T10:49:38.468Z,26.04
2018-09-04T10:51:14.016Z,26.14
2018-09-04T10:52:49.766Z,26.19
2018-09-04T10:54:25.265Z,26.36
2018-09-04T10:56:00.757Z,26.44
2018-09-04T10:57:36.300Z,26.80
2018-09-04T10:59:11.829Z,26.94
2018-09-04T11:00:47.346Z,26.41
2018-09-04T11:02:22.957Z,26.34
2018-09-04T11:03:58.367Z,26.20
2018-09-04T11:05:33.898Z,26.35
2018-09-04T11:07:10.891Z,26.20
2018-09-04T11:08:46.550Z,26.07
2018-09-04T11:10:22.116Z,26.22
2018-09-04T11:11:57.853Z,26.52
2018-09-04T11:13:33.845Z,26.74
2018-09-04T11:15:09.605Z,26.65
2018-09-04T11:16:45.828Z,26.80
2018-09-04T11:18:21.352Z,26.73
2018-09-04T11:19:56.905Z,26.78
2018-09-04T11:21:33.105Z,26.78
2018-09-04T11:23:08.698Z,26.69
2018-09-04T11:24:44.248Z,26.49
2018-09-04T11:26:19.838Z,26.54
2018-09-04T11:27:55.883Z,26.66
2018-09-04T11:31:11.890Z,26.94
2018-09-04T11:32:47.452Z,26.80
2018-09-04T11:34:27.193Z,26.87
2018-09-04T11:36:02.729Z,26.91
2018-09-04T11:37:38.274Z,27.37
2018-09-04T11:39:13.738Z,27.61
2018-09-04T11:40:50.072Z,27.97
2018-09-04T11:42:25.617Z,28.14
2018-09-04T11:44:01.219Z,27.73
2018-09-04T11:45:37.522Z,27.65
2018-09-04T11:47:13.434Z,27.54
2018-09-04T11:48:49.676Z,27.86
2018-09-04T11:50:25.153Z,27.62
2018-09-04T11:52:00.704Z,27.65
2018-09-04T11:53:36.238Z,27.52
2018-09-04T11:55:12.080Z,27.50
2018-09-04T11:56:47.537Z,27.09
2018-09-04T11:58:23.968Z,27.06
2018-09-04T11:59:59.924Z,27.10
2018-09-04T12:01:36.296Z,27.10
2018-09-04T12:03:13.280Z,27.18
2018-09-04T12:04:48.809Z,27.17
2018-09-04T12:06:24.767Z,27.32
2018-09-04T12:08:00.272Z,27.30
2018-09-04T12:09:35.812Z,27.60
2018-09-04T12:11:11.395Z,27.65
2018-09-04T12:12:47.091Z,27.83
2018-09-04T12:14:22.648Z,27.71
2018-09-04T12:15:58.786Z,27.89
2018-09-04T12:17:34.342Z,27.94
2018-09-04T12:19:11.816Z,27.84
2018-09-04T12:20:48.797Z,27.77
2018-09-04T12:22:24.990Z,27.82
2018-09-04T12:24:00.571Z,27.81
2018-09-04T12:25:36.088Z,27.90
2018-09-04T12:27:11.805Z,28.15
2018-09-04T12:28:47.579Z,28.45
2018-09-04T12:30:23.631Z,28.38
2018-09-04T12:31:59.105Z,28.51
2018-09-04T12:33:36.536Z,27.94
2018-09-04T12:35:13.304Z,27.92
2018-09-04T12:36:49.190Z,27.86
2018-09-04T12:38:29.803Z,27.95
2018-09-04T12:40:06.533Z,28.42
2018-09-04T12:41:42.046Z,28.74
2018-09-04T12:43:18.027Z,28.97
2018-09-04T12:44:59.341Z,28.81
2018-09-04T12:46:35.253Z,29.10
2018-09-04T12:48:13.079Z,28.96
2018-09-04T12:49:48.614Z,28.91
2018-09-04T12:51:24.543Z,29.30
2018-09-04T12:53:00.110Z,29.60
2018-09-04T12:54:35.607Z,29.11
2018-09-04T12:56:11.868Z,29.01
2018-09-04T12:57:47.577Z,29.20
2018-09-04T12:59:23.040Z,29.26
2018-09-04T13:00:59.097Z,28.82
2018-09-04T13:02:34.591Z,28.75
2018-09-04T13:04:10.900Z,28.90
2018-09-04T13:05:46.921Z,28.91
2018-09-04T13:07:22.437Z,28.89
2018-09-04T13:08:58.115Z,28.56
2018-09-04T13:10:33.550Z,28.55
2018-09-04T13:12:14.891Z,28.51
2018-09-04T13:16:11.193Z,28.26
2018-09-04T13:18:00.207Z,28.34
2018-09-04T13:19:38.679Z,28.58
2018-09-04T13:21:14.204Z,28.44
2018-09-04T13:22:50.000Z,28.29
2018-09-04T13:24:25.604Z,28.18
2018-09-04T13:26:01.312Z,28.71
2018-09-04T13:27:37.245Z,29.04
2018-09-04T13:29:13.445Z,28.99
2018-09-04T13:30:49.735Z,28.91
2018-09-04T13:32:25.528Z,29.40
2018-09-04T13:34:01.016Z,29.55
2018-09-04T13:35:37.148Z,30.01
2018-09-04T13:37:15.165Z,30.06
2018-09-04T13:38:56.008Z,30.15
2018-09-04T13:40:31.993Z,29.99
2018-09-04T13:42:08.473Z,29.36
2018-09-04T13:43:43.984Z,29.26
2018-09-04T13:45:26.526Z,29.43
2018-09-04T13:47:02.057Z,28.84
2018-09-04T13:48:37.539Z,28.61
2018-09-04T13:50:13.384Z,28.41
2018-09-04T13:51:50.165Z,28.40
2018-09-04T13:53:25.968Z,28.16
2018-09-04T13:55:01.509Z,28.16
2018-09-04T13:56:37.154Z,28.10
2018-09-04T13:58:12.673Z,28.14
2018-09-04T13:59:48.152Z,28.13
2018-09-04T14:01:24.124Z,28.19
2018-09-04T14:02:59.629Z,28.26
2018-09-04T14:04:35.255Z,28.25
2018-09-04T14:06:11.213Z,28.18
2018-09-04T14:07:47.762Z,28.13
2018-09-04T14:09:23.268Z,28.10
2018-09-04T14:10:58.763Z,27.95
2018-09-04T14:12:35.266Z,28.03
2018-09-04T14:14:10.994Z,28.01
2018-09-04T14:15:47.272Z,27.81
2018-09-04T14:17:22.932Z,27.83
2018-09-04T14:18:58.596Z,27.90
2018-09-04T14:20:34.102Z,28.09
2018-09-04T14:22:09.641Z,27.85
2018-09-04T14:23:45.721Z,27.96
2018-09-04T14:25:21.288Z,27.72
2018-09-04T14:26:58.175Z,27.65
2018-09-04T14:28:41.489Z,27.64
2018-09-04T14:30:16.671Z,27.66
2018-09-04T14:31:45.090Z,27.73
2018-09-04T14:33:20.563Z,27.74
2018-09-04T14:34:56.096Z,27.84
2018-09-04T14:36:32.802Z,27.97
2018-09-04T14:38:11.027Z,28.03
2018-09-04T14:39:55.585Z,28.12
2018-09-04T14:41:22.263Z,28.34
2018-09-04T14:42:58.647Z,28.39
2018-09-04T14:44:34.122Z,28.04
2018-09-04T14:46:09.619Z,27.94
2018-09-04T14:47:45.096Z,27.85
2018-09-04T14:49:20.694Z,27.99
2018-09-04T14:50:56.843Z,27.78
2018-09-04T14:52:32.515Z,27.82
2018-09-04T14:54:08.286Z,27.79
2018-09-04T14:55:43.794Z,27.83
2018-09-04T14:57:20.895Z,28.00
2018-09-04T14:58:56.761Z,28.10
2018-09-04T15:00:32.273Z,28.31
2018-09-04T15:02:07.899Z,28.33
2018-09-04T15:03:43.455Z,28.41
2018-09-04T15:05:18.993Z,28.42
2018-09-04T15:06:54.572Z,28.64
2018-09-04T15:08:30.091Z,28.70
2018-09-04T15:10:05.831Z,28.28
2018-09-04T15:11:41.520Z,28.09
2018-09-04T15:13:17.021Z,27.99
2018-09-04T15:14:52.675Z,28.12
2018-09-04T15:16:28.156Z,28.15
2018-09-04T15:18:04.033Z,27.82
2018-09-04T15:19:39.560Z,27.87
2018-09-04T15:21:17.881Z,27.91
2018-09-04T15:22:53.515Z,27.95
2018-09-04T15:24:28.985Z,27.95
2018-09-04T15:26:04.615Z,27.47
2018-09-04T15:27:40.174Z,27.54
2018-09-04T15:29:15.681Z,27.46
2018-09-04T15:30:51.509Z,27.46
2018-09-04T15:32:27.684Z,27.59
2018-09-04T15:34:03.855Z,27.52
2018-09-04T15:35:39.388Z,27.38
2018-09-04T15:37:14.842Z,27.24
2018-09-04T15:38:50.300Z,27.13
2018-09-04T15:40:25.833Z,27.23
2018-09-04T15:42:01.364Z,27.25
2018-09-04T15:43:36.848Z,27.12
2018-09-04T15:45:12.328Z,26.94
2018-09-04T15:46:47.860Z,26.87
2018-09-04T15:48:24.278Z,26.83
2018-09-04T15:49:59.746Z,26.74
2018-09-04T15:51:35.575Z,26.64
2018-09-04T15:53:11.388Z,26.60
2018-09-04T15:54:46.949Z,26.54
2018-09-04T15:56:22.551Z,26.50
2018-09-04T15:57:58.223Z,26.37
2018-09-04T15:59:33.524Z,26.35
2018-09-04T16:01:09.538Z,26.57
2018-09-04T16:02:45.024Z,26.75
2018-09-04T16:04:21.089Z,26.84
2018-09-04T16:05:56.869Z,26.95
2018-09-04T16:07:32.438Z,26.57
2018-09-04T16:09:14.545Z,26.27
2018-09-04T16:10:50.239Z,26.31
2018-09-04T16:12:25.868Z,26.33
2018-09-04T16:14:02.766Z,26.23
2018-09-04T16:15:38.788Z,26.15
2018-09-04T16:17:15.307Z,26.15
2018-09-04T16:18:51.954Z,26.27
2018-09-04T16:20:32.550Z,26.21
2018-09-04T16:22:08.040Z,26.05
2018-09-04T16:23:43.615Z,25.95
2018-09-04T16:25:20.903Z,25.99
2018-09-04T16:26:57.419Z,25.88
2018-09-04T16:28:33.337Z,25.82
2018-09-04T16:30:10.169Z,25.74
2018-09-04T16:31:45.800Z,25.65
2018-09-04T16:33:28.504Z,25.56
2018-09-04T16:35:04.052Z,25.50
2018-09-04T16:36:41.321Z,25.50
2018-09-04T16:38:16.824Z,25.45
2018-09-04T16:39:57.945Z,25.49
2018-09-04T16:41:34.934Z,25.43
2018-09-04T16:43:10.570Z,25.33
2018-09-04T16:44:46.224Z,25.28
2018-09-04T16:46:21.789Z,25.17
2018-09-04T16:47:58.782Z,25.14
2018-09-04T16:49:35.849Z,25.15
2018-09-04T16:51:14.360Z,24.92
2018-09-04T16:52:56.647Z,25.15
2018-09-04T16:54:32.191Z,24.96
2018-09-04T16:56:08.869Z,24.91
2018-09-04T16:57:52.510Z,24.87
2018-09-04T16:59:38.463Z,24.84
2018-09-04T17:04:06.403Z,24.62
2018-09-04T17:05:41.930Z,24.55
2018-09-04T17:07:17.445Z,24.48
2018-09-04T17:08:53.891Z,24.66
2018-09-04T17:10:29.452Z,24.81
2018-09-04T17:12:04.984Z,24.92
2018-09-04T17:13:40.950Z,24.92
2018-09-04T17:15:16.464Z,24.86
2018-09-04T17:16:52.181Z,24.69
2018-09-04T17:18:28.005Z,24.68
2018-09-04T17:20:03.612Z,24.61
2018-09-04T17:21:39.485Z,24.57
2018-09-04T17:23:15.732Z,24.64
2018-09-04T17:24:51.294Z,24.58
2018-09-04T17:26:26.811Z,24.51
2018-09-04T17:28:02.282Z,24.51
2018-09-04T17:29:37.805Z,24.51
2018-09-04T17:31:13.302Z,24.73
2018-09-04T17:32:48.857Z,24.57
2018-09-04T17:34:24.492Z,24.24
2018-09-04T17:36:00.147Z,23.88
2018-09-04T17:37:35.711Z,23.70
2018-09-04T17:39:11.261Z,23.69
2018-09-04T17:40:46.748Z,23.69
2018-09-04T17:42:22.219Z,23.76
2018-09-04T17:43:57.801Z,23.78
2018-09-04T17:45:33.360Z,23.77
2018-09-04T17:47:08.888Z,23.80
2018-09-04T17:48:44.488Z,23.72
2018-09-04T17:50:20.004Z,23.67
2018-09-04T17:51:55.561Z,23.58
2018-09-04T17:53:31.412Z,23.59
2018-09-04T17:55:07.971Z,23.60
2018-09-04T17:56:43.498Z,23.59
2018-09-04T17:58:18.969Z,23.52
2018-09-04T17:59:54.481Z,23.19
2018-09-04T18:01:30.169Z,23.40
2018-09-04T18:03:06.975Z,23.36
2018-09-04T18:04:43.386Z,23.41
2018-09-04T18:06:19.130Z,23.44
2018-09-04T18:07:54.725Z,23.20
2018-09-04T18:09:30.272Z,23.14
2018-09-04T18:11:05.852Z,23.07
2018-09-04T18:12:41.385Z,22.97
2018-09-04T18:14:16.883Z,22.97
2018-09-04T18:15:52.692Z,22.90
2018-09-04T18:17:28.194Z,22.93
2018-09-04T18:19:03.781Z,22.97
2018-09-04T18:20:39.652Z,22.92
2018-09-04T18:22:15.954Z,22.96
2018-09-04T18:23:51.478Z,22.89
2018-09-04T18:25:26.988Z,22.87
2018-09-04T18:27:02.524Z,22.77
2018-09-04T18:28:38.031Z,22.69
2018-09-04T18:30:13.549Z,22.60
2018-09-04T18:31:49.055Z,22.45
2018-09-04T18:33:24.624Z,22.73
2018-09-04T18:35:00.113Z,22.95
2018-09-04T18:36:35.663Z,22.80
2018-09-04T18:38:11.188Z,22.66
2018-09-04T18:39:46.673Z,22.36
2018-09-04T18:41:22.333Z,22.65
2018-09-04T18:42:57.912Z,22.60
2018-09-04T18:44:33.997Z,22.66
2018-09-04T18:46:09.825Z,22.69
2018-09-04T18:47:45.850Z,22.68
2018-09-04T18:49:22.054Z,22.59
2018-09-04T18:50:57.624Z,22.59
2018-09-04T18:52:34.192Z,22.80
2018-09-04T18:54:09.689Z,22.79
2018-09-04T18:55:45.197Z,22.79
2018-09-04T18:57:20.764Z,22.79
2018-09-04T18:58:56.274Z,22.58
2018-09-04T19:00:32.982Z,22.39
2018-09-04T19:02:08.588Z,22.50
2018-09-04T19:03:44.164Z,22.44
2018-09-04T19:05:19.743Z,22.31
2018-09-04T19:06:55.353Z,22.32
2018-09-04T19:08:30.984Z,22.32
2018-09-04T19:10:06.517Z,22.29
2018-09-04T19:11:42.217Z,22.22
2018-09-04T19:13:17.813Z,22.09
2018-09-04T19:14:53.467Z,22.08
2018-09-04T19:16:29.089Z,22.10
2018-09-04T19:18:05.306Z,21.95
2018-09-04T19:19:40.853Z,21.88
2018-09-04T19:21:16.447Z,22.09
2018-09-04T19:22:52.053Z,22.00
2018-09-04T19:24:27.677Z,22.15
2018-09-04T19:26:03.207Z,22.12
2018-09-04T19:27:38.925Z,22.18
2018-09-04T19:29:14.429Z,22.02
2018-09-04T19:30:50.056Z,22.14
2018-09-04T19:32:25.536Z,21.97
2018-09-04T19:34:01.131Z,21.90
2018-09-04T19:35:39.539Z,21.96
2018-09-04T19:37:16.311Z,21.98
2018-09-04T19:38:52.090Z,22.06
2018-09-04T19:40:27.694Z,21.99
2018-09-04T19:42:03.240Z,21.99
2018-09-04T19:43:39.081Z,21.86
2018-09-04T19:45:14.888Z,21.87
2018-09-04T19:46:52.131Z,21.94
2018-09-04T19:48:28.138Z,21.82
2018-09-04T19:50:03.960Z,21.61
2018-09-04T19:51:39.414Z,21.82
2018-09-04T19:53:19.844Z,21.73
2018-09-04T19:54:55.405Z,21.69
2018-09-04T19:56:30.984Z,21.74
2018-09-04T19:58:07.509Z,21.56
2018-09-04T19:59:43.055Z,21.47
2018-09-04T20:01:18.677Z,21.59
2018-09-04T20:02:54.174Z,21.75
2018-09-04T20:04:29.764Z,21.70
2018-09-04T20:06:05.464Z,21.71
2018-09-04T20:07:42.107Z,21.67
2018-09-04T20:09:17.657Z,21.79
2018-09-04T20:10:53.248Z,21.71
2018-09-04T20:12:29.253Z,21.69
2018-09-04T20:14:04.812Z,21.63
2018-09-04T20:15:40.360Z,21.61
2018-09-04T20:17:15.930Z,21.53
2018-09-04T20:18:51.521Z,21.61
2018-09-04T20:20:27.035Z,21.62
2018-09-04T20:22:02.883Z,21.54
2018-09-04T20:23:38.423Z,21.40
2018-09-04T20:25:13.982Z,21.42
2018-09-04T20:26:49.531Z,21.58
2018-09-04T20:28:25.047Z,21.46
2018-09-04T20:30:01.201Z,21.44
2018-09-04T20:31:36.699Z,21.52
2018-09-04T20:33:12.225Z,21.20
2018-09-04T20:34:47.745Z,21.41
2018-09-04T20:36:23.281Z,21.44
2018-09-04T20:37:58.819Z,21.30
2018-09-04T20:39:34.273Z,21.29
2018-09-04T20:41:10.007Z,21.00
2018-09-04T20:42:45.530Z,21.00
2018-09-04T20:44:21.027Z,21.02